This is the latest recevied weather packets stored in our database for station/object VE3MNX. If no packets are shown the sender has not sent any weather packets the latest 1 day(s).
| Time | Temp. | Humidity | Pressure | Rain* | Wind** | Luminosity | Snow |
|---|---|---|---|---|---|---|---|
| 1778019797 | 9.44° C | 98% | 1006.8 hPa | 1.27 mm | 0.45 m/s, 283° | - | - |
| 1778018897 | 10° C | 98% | 1006.8 hPa | 1.02 mm | 0.89 m/s, 296° | - | - |
| 1778017997 | 10° C | 96% | 1006.1 hPa | 1.02 mm | 0.89 m/s, 296° | - | - |
| 1778017099 | 10.56° C | 95% | 1006.4 hPa | 0.76 mm | 0.45 m/s, 296° | - | - |
| 1778016197 | 10.56° C | 95% | 1006.4 hPa | 0.76 mm | 0 m/s | - | - |
| 1778015297 | 10° C | 95% | 1006.8 hPa | 1.52 mm | 0.45 m/s, 326° | - | - |
| 1778014397 | 10° C | 94% | 1006.8 hPa | 1.78 mm | 0.89 m/s, 326° | - | - |
| 1778013497 | 10° C | 93% | 1006.8 hPa | 2.54 mm | 1.34 m/s, 335° | - | - |
| 1778012598 | 10.56° C | 93% | 1006.8 hPa | 2.29 mm | 1.34 m/s, 330° | - | - |
| 1778011697 | 10.56° C | 91% | 1006.7 hPa | 1.52 mm | 2.24 m/s, 338° | - | - |
| 1778010797 | 11.11° C | 92% | 1006.1 hPa | 0.76 mm | 3.13 m/s, 338° | - | - |
| 1778009897 | 11.67° C | 86% | 1006.4 hPa | 0 mm | 3.58 m/s, 330° | - | - |
| 1778008997 | 12.22° C | 81% | 1006.1 hPa | 0 mm | 4.02 m/s, 332° | - | - |
| 1778008097 | 13.33° C | 77% | 1005.8 hPa | 0 mm | 3.58 m/s, 321° | - | - |
| 1778007198 | 14.44° C | 78% | 1005.4 hPa | 0 mm | 1.34 m/s, 314° | - | - |
| 1778006297 | 15° C | 74% | 1005.8 hPa | 0 mm | 1.34 m/s, 322° | - | - |
| 1778005397 | 15° C | 77% | 1005.4 hPa | 0 mm | 2.24 m/s, 340° | - | - |
| 1778004497 | 15° C | 78% | 1005.1 hPa | 0 mm | 2.24 m/s, 305° | - | - |
| 1778003599 | 15° C | 77% | 1005.1 hPa | 0 mm | 1.34 m/s, 312° | - | - |
| 1778002696 | 15° C | 75% | 1005.1 hPa | 0 mm | 0.45 m/s, 325° | - | - |
| 1778001797 | 15° C | 74% | 1004.7 hPa | 0 mm | 0.89 m/s, 341° | - | - |
| 1778000896 | 15.56° C | 73% | 1005.1 hPa | 0 mm | 0.89 m/s, 352° | - | - |
| 1777999997 | 14.44° C | 79% | 1005.1 hPa | 0 mm | 0.45 m/s, 113° | - | - |
| 1777999096 | 15.56° C | 75% | 1005.1 hPa | 0 mm | 0.45 m/s, 14° | - | - |
| 1777998199 | 15.56° C | 77% | 1004.5 hPa | 0 mm | 2.24 m/s, 341° | - | - |
* Rain latest hour (hover to see other rain measurements)
** Current wind speed in m/s (hover to see current wind gust speed)